Time;durP1;ratioP1;P1;durP2;ratioP2;P2;SDS_P1;SDS_P2;PMS_P1;PMS_P2;Temp;Humidity;BMP_temperature;BMP_pressure;BME280_temperature;BME280_humidity;BME280_pressure;Samples;Min_cycle;Max_cycle;Signal;HPM_P1;HPM_P2
2022/08/28 00:01:03;;;;;;;0.60;0.60;;;;;;;;;;5070832;28;20222;-65
2022/08/28 00:03:29;;;;;;;0.70;0.70;;;;;;;;;;5073908;28;20210;-66
2022/08/28 00:05:55;;;;;;;0.70;0.70;;;;;;;;;;5062632;28;20592;-65
2022/08/28 00:08:21;;;;;;;0.80;0.80;;;;;;;;;;5069590;28;20279;-66
2022/08/28 00:10:47;;;;;;;0.80;0.80;;;;;;;;;;5071341;28;21107;-66
2022/08/28 00:13:17;;;;;;;0.80;0.80;;;;;;;;;;5061331;28;20252;-65
2022/08/28 00:15:43;;;;;;;0.70;0.70;;;;;;;;;;5067735;28;20229;-65
2022/08/28 00:18:09;;;;;;;0.80;0.80;;;;;;;;;;5071021;28;20230;-66
2022/08/28 00:20:35;;;;;;;0.80;0.80;;;;;;;;;;5082631;28;20273;-66
2022/08/28 00:23:01;;;;;;;0.87;0.87;;;;;;;;;;5076787;27;20202;-65
2022/08/28 00:25:27;;;;;;;0.70;0.70;;;;;;;;;;5072916;28;20722;-66
2022/08/28 00:27:55;;;;;;;0.70;0.70;;;;;;;;;;5067772;28;20301;-65
2022/08/28 00:30:21;;;;;;;0.80;0.80;;;;;;;;;;5067718;28;20357;-66
2022/08/28 00:32:47;;;;;;;0.70;0.70;;;;;;;;;;5061755;28;20253;-65
2022/08/28 00:35:16;;;;;;;0.67;0.67;;;;;;;;;;5071956;28;20322;-66
2022/08/28 00:37:42;;;;;;;0.80;0.80;;;;;;;;;;5070887;28;20227;-66
2022/08/28 00:40:08;;;;;;;0.70;0.70;;;;;;;;;;5072266;28;20276;-66
2022/08/28 00:42:35;;;;;;;0.60;0.60;;;;;;;;;;5075463;28;20227;-66
2022/08/28 00:45:01;;;;;;;0.70;0.70;;;;;;;;;;5076540;28;20305;-66
2022/08/28 00:47:27;;;;;;;0.70;0.70;;;;;;;;;;5077263;28;20222;-65
2022/08/28 00:49:53;;;;;;;0.70;0.70;;;;;;;;;;5071971;28;20222;-66
2022/08/28 00:52:19;;;;;;;0.80;0.80;;;;;;;;;;5073548;28;20316;-66
2022/08/28 00:54:47;;;;;;;0.70;0.70;;;;;;;;;;5057344;28;20194;-66
2022/08/28 00:57:14;;;;;;;0.70;0.70;;;;;;;;;;5073545;28;20239;-66
2022/08/28 00:59:40;;;;;;;0.70;0.70;;;;;;;;;;5054392;28;20223;-66
2022/08/28 01:02:06;;;;;;;1.20;1.20;;;;;;;;;;5070253;28;20222;-66
2022/08/28 01:04:32;;;;;;;1.20;1.20;;;;;;;;;;5059104;28;20636;-66
2022/08/28 01:06:58;;;;;;;1.30;1.30;;;;;;;;;;5050613;28;20218;-65
2022/08/28 01:09:25;;;;;;;1.20;1.20;;;;;;;;;;5068755;28;20696;-66
2022/08/28 01:11:52;;;;;;;1.20;1.20;;;;;;;;;;5060869;28;20629;-65
2022/08/28 01:14:21;;;;;;;1.33;1.33;;;;;;;;;;5067562;28;20225;-66
2022/08/28 01:16:51;;;;;;;1.37;1.37;;;;;;;;;;5061551;28;20261;-66
2022/08/28 01:19:18;;;;;;;1.50;1.50;;;;;;;;;;5048136;28;20277;-66
2022/08/28 01:21:46;;;;;;;1.23;1.23;;;;;;;;;;5055473;28;20245;-65
2022/08/28 01:24:14;;;;;;;1.37;1.37;;;;;;;;;;5036454;28;20696;-65
2022/08/28 01:26:40;;;;;;;1.70;1.70;;;;;;;;;;5063337;28;20218;-65
2022/08/28 01:29:07;;;;;;;1.50;1.50;;;;;;;;;;5058484;28;20304;-65
2022/08/28 01:31:33;;;;;;;1.50;1.50;;;;;;;;;;5038274;28;20228;-65
2022/08/28 01:33:59;;;;;;;1.40;1.40;;;;;;;;;;5067793;28;20232;-65
2022/08/28 01:36:27;;;;;;;1.50;1.50;;;;;;;;;;5064841;28;20234;-65
2022/08/28 01:38:55;;;;;;;1.40;1.40;;;;;;;;;;5038576;28;20227;-66
2022/08/28 01:41:21;;;;;;;1.50;1.50;;;;;;;;;;5052103;28;20694;-65
2022/08/28 01:43:47;;;;;;;1.90;1.80;;;;;;;;;;5043006;28;20222;-65
2022/08/28 01:46:13;;;;;;;1.50;1.50;;;;;;;;;;5055074;28;20230;-65
2022/08/28 01:48:41;;;;;;;1.57;1.57;;;;;;;;;;5068296;28;22141;-66
2022/08/28 01:51:07;;;;;;;1.50;1.50;;;;;;;;;;5057952;28;20225;-65
2022/08/28 01:53:33;;;;;;;1.50;1.50;;;;;;;;;;5066734;28;20221;-65
2022/08/28 01:55:59;;;;;;;1.40;1.40;;;;;;;;;;5057438;28;20238;-65
2022/08/28 01:58:25;;;;;;;1.50;1.50;;;;;;;;;;5071446;28;20230;-65
2022/08/28 02:00:52;;;;;;;1.50;1.50;;;;;;;;;;5040186;28;20233;-65
2022/08/28 02:03:18;;;;;;;1.60;1.60;;;;;;;;;;5067916;28;20350;-65
2022/08/28 02:05:44;;;;;;;1.70;1.70;;;;;;;;;;5069018;28;20218;-65
2022/08/28 02:08:11;;;;;;;1.40;1.40;;;;;;;;;;5063646;28;20218;-65
2022/08/28 02:10:37;;;;;;;1.87;1.77;;;;;;;;;;5058718;28;20219;-66
2022/08/28 02:13:03;;;;;;;1.50;1.50;;;;;;;;;;5064516;28;20211;-65
2022/08/28 02:15:30;;;;;;;1.50;1.50;;;;;;;;;;5052506;28;20230;-66
2022/08/28 02:17:56;;;;;;;1.60;1.60;;;;;;;;;;5045482;28;20962;-66
2022/08/28 02:20:22;;;;;;;2.07;1.97;;;;;;;;;;5066006;28;20245;-65
2022/08/28 02:22:48;;;;;;;1.80;1.70;;;;;;;;;;5068811;28;20265;-65
2022/08/28 02:25:15;;;;;;;2.00;1.90;;;;;;;;;;5057933;28;20233;-66
2022/08/28 02:27:41;;;;;;;0.63;0.63;;;;;;;;;;5062586;28;20998;-65
2022/08/28 02:30:07;;;;;;;0.70;0.70;;;;;;;;;;5060535;28;20253;-66
2022/08/28 02:32:33;;;;;;;0.70;0.70;;;;;;;;;;5066198;28;20265;-65
2022/08/28 02:34:59;;;;;;;0.60;0.60;;;;;;;;;;5074394;28;20265;-66
2022/08/28 02:37:25;;;;;;;0.70;0.70;;;;;;;;;;5069329;28;20238;-66
2022/08/28 02:39:55;;;;;;;0.70;0.70;;;;;;;;;;5061772;28;20254;-65
2022/08/28 02:42:21;;;;;;;0.60;0.60;;;;;;;;;;5072714;28;20224;-66
2022/08/28 02:44:47;;;;;;;0.70;0.70;;;;;;;;;;5067298;28;20629;-65
2022/08/28 02:47:14;;;;;;;0.60;0.60;;;;;;;;;;5068906;28;20186;-66
2022/08/28 02:49:40;;;;;;;0.60;0.60;;;;;;;;;;5072891;28;20214;-65
2022/08/28 02:52:06;;;;;;;0.60;0.60;;;;;;;;;;5062151;28;20233;-65
2022/08/28 02:54:32;;;;;;;0.67;0.67;;;;;;;;;;5072059;28;20202;-65
2022/08/28 02:56:58;;;;;;;0.60;0.60;;;;;;;;;;5070344;28;20229;-65
2022/08/28 02:59:24;;;;;;;0.70;0.70;;;;;;;;;;5065778;28;20250;-66
2022/08/28 03:01:50;;;;;;;0.70;0.70;;;;;;;;;;5056299;28;20311;-66
2022/08/28 03:04:16;;;;;;;0.77;0.77;;;;;;;;;;5071344;28;20313;-65
2022/08/28 03:06:42;;;;;;;0.70;0.70;;;;;;;;;;5072272;28;20218;-65
2022/08/28 03:09:08;;;;;;;0.70;0.70;;;;;;;;;;5071308;28;20250;-66
2022/08/28 03:11:35;;;;;;;0.57;0.57;;;;;;;;;;5074019;28;20293;-65
2022/08/28 03:14:02;;;;;;;0.70;0.70;;;;;;;;;;5066529;28;22277;-65
2022/08/28 03:16:28;;;;;;;0.70;0.70;;;;;;;;;;5081093;28;20222;-65
2022/08/28 03:18:53;;;;;;;1.70;1.70;;;;;;;;;;5080829;28;20218;-65
2022/08/28 03:21:20;;;;;;;1.50;1.50;;;;;;;;;;5078600;28;20219;-66
2022/08/28 03:23:46;;;;;;;1.90;1.80;;;;;;;;;;5071942;28;20249;-65
2022/08/28 03:26:13;;;;;;;1.53;1.53;;;;;;;;;;5072559;28;20233;-65
2022/08/28 03:28:43;;;;;;;1.40;1.40;;;;;;;;;;5064406;28;20218;-66
2022/08/28 03:31:09;;;;;;;1.40;1.40;;;;;;;;;;5068550;28;20227;-66
2022/08/28 03:33:35;;;;;;;1.30;1.30;;;;;;;;;;5065147;28;20229;-65
2022/08/28 03:36:01;;;;;;;1.30;1.30;;;;;;;;;;5080947;28;20291;-65
2022/08/28 03:38:27;;;;;;;1.30;1.30;;;;;;;;;;5070936;28;20206;-65
2022/08/28 03:40:53;;;;;;;1.40;1.40;;;;;;;;;;5067861;28;20229;-65
2022/08/28 03:43:20;;;;;;;1.40;1.40;;;;;;;;;;5075724;28;20307;-66
2022/08/28 03:45:59;;;;;;;1.60;1.60;;;;;;;;;;5060176;28;20219;-66
2022/08/28 03:48:26;;;;;;;1.50;1.50;;;;;;;;;;5077633;28;20194;-65
2022/08/28 03:50:52;;;;;;;1.90;1.80;;;;;;;;;;5077671;27;20280;-65
2022/08/28 03:53:19;;;;;;;1.50;1.50;;;;;;;;;;5073861;28;22916;-66
2022/08/28 03:55:45;;;;;;;1.73;1.70;;;;;;;;;;5072933;28;20269;-65
2022/08/28 03:58:11;;;;;;;1.40;1.40;;;;;;;;;;5074737;28;20218;-66
2022/08/28 04:00:39;;;;;;;1.30;1.30;;;;;;;;;;5098268;27;20235;-65
2022/08/28 04:03:04;;;;;;;1.23;1.23;;;;;;;;;;5080112;28;20264;-66
2022/08/28 04:05:32;;;;;;;1.30;1.30;;;;;;;;;;5065624;28;20222;-66
2022/08/28 04:07:58;;;;;;;1.53;1.53;;;;;;;;;;5064618;28;20218;-65
2022/08/28 04:10:23;;;;;;;2.17;2.07;;;;;;;;;;5067583;28;20238;-66
2022/08/28 04:12:49;;;;;;;1.47;1.47;;;;;;;;;;5065431;28;20222;-66
2022/08/28 04:15:15;;;;;;;1.40;1.40;;;;;;;;;;5072627;28;20227;-65
2022/08/28 04:17:42;;;;;;;1.50;1.50;;;;;;;;;;5066283;27;20225;-65
2022/08/28 04:20:08;;;;;;;1.40;1.40;;;;;;;;;;5074064;28;20602;-65
2022/08/28 04:22:35;;;;;;;1.57;1.57;;;;;;;;;;5069721;27;20211;-66
2022/08/28 04:25:01;;;;;;;1.90;1.80;;;;;;;;;;5061672;28;20381;-66
2022/08/28 04:27:27;;;;;;;2.00;1.90;;;;;;;;;;5077082;27;21303;-66
2022/08/28 04:29:53;;;;;;;2.00;1.90;;;;;;;;;;5074350;28;20253;-66
2022/08/28 04:32:19;;;;;;;0.90;0.90;;;;;;;;;;5078481;28;20268;-65
2022/08/28 04:34:45;;;;;;;0.90;0.90;;;;;;;;;;5067970;28;20230;-66
2022/08/28 04:37:11;;;;;;;0.80;0.80;;;;;;;;;;5059826;28;20311;-66
2022/08/28 04:39:37;;;;;;;0.90;0.90;;;;;;;;;;5054952;28;20810;-65
2022/08/28 04:42:03;;;;;;;1.00;1.00;;;;;;;;;;5061395;28;20222;-66
2022/08/28 04:44:29;;;;;;;0.90;0.90;;;;;;;;;;5075690;28;20227;-65
2022/08/28 04:46:55;;;;;;;1.80;1.70;;;;;;;;;;5074386;28;20226;-66
2022/08/28 04:49:21;;;;;;;1.90;1.80;;;;;;;;;;5067113;28;20730;-66
2022/08/28 04:51:47;;;;;;;2.10;2.00;;;;;;;;;;5073830;28;20261;-66
2022/08/28 04:54:13;;;;;;;1.50;1.50;;;;;;;;;;5081137;28;20214;-66
2022/08/28 04:56:39;;;;;;;1.73;1.70;;;;;;;;;;5080247;28;20230;-66
2022/08/28 04:59:05;;;;;;;1.50;1.50;;;;;;;;;;5086152;28;20246;-66
2022/08/28 05:01:31;;;;;;;1.50;1.50;;;;;;;;;;5079961;28;20681;-65
2022/08/28 05:03:58;;;;;;;1.67;1.67;;;;;;;;;;5073872;28;20205;-66
2022/08/28 05:06:25;;;;;;;1.90;1.80;;;;;;;;;;5073850;28;20971;-66
2022/08/28 05:08:51;;;;;;;1.50;1.50;;;;;;;;;;5069081;28;20211;-66
2022/08/28 05:11:18;;;;;;;1.60;1.60;;;;;;;;;;5073710;28;20648;-66
2022/08/28 05:13:44;;;;;;;1.50;1.50;;;;;;;;;;5074186;28;20226;-66
2022/08/28 05:16:10;;;;;;;1.50;1.50;;;;;;;;;;5085086;27;21074;-65
2022/08/28 05:18:36;;;;;;;1.40;1.40;;;;;;;;;;5074310;28;20224;-66
2022/08/28 05:21:02;;;;;;;1.40;1.40;;;;;;;;;;5083305;28;20186;-66
2022/08/28 05:23:28;;;;;;;1.40;1.40;;;;;;;;;;5070638;28;20332;-66
2022/08/28 05:25:54;;;;;;;1.60;1.60;;;;;;;;;;5070741;28;22527;-66
2022/08/28 05:28:20;;;;;;;1.43;1.43;;;;;;;;;;5079867;28;20213;-66
2022/08/28 05:30:46;;;;;;;1.60;1.60;;;;;;;;;;5068703;28;20226;-65
2022/08/28 05:33:13;;;;;;;1.50;1.50;;;;;;;;;;5054228;28;20243;-66
2022/08/28 05:35:40;;;;;;;1.87;1.77;;;;;;;;;;5079811;28;20357;-66
2022/08/28 05:38:07;;;;;;;1.37;1.37;;;;;;;;;;5063927;28;20225;-66
2022/08/28 05:40:33;;;;;;;1.83;1.73;;;;;;;;;;5072778;27;20252;-66
2022/08/28 05:42:59;;;;;;;1.50;1.50;;;;;;;;;;5071482;28;20855;-66
2022/08/28 05:45:25;;;;;;;0.80;0.80;;;;;;;;;;5066425;28;21989;-66
2022/08/28 05:47:51;;;;;;;0.80;0.80;;;;;;;;;;5074932;28;20987;-67
2022/08/28 05:50:17;;;;;;;0.70;0.70;;;;;;;;;;5078717;28;20186;-66
2022/08/28 05:52:43;;;;;;;0.90;0.90;;;;;;;;;;5076030;28;20197;-66
2022/08/28 05:55:10;;;;;;;0.80;0.80;;;;;;;;;;5066502;28;20608;-65
2022/08/28 05:57:36;;;;;;;0.90;0.90;;;;;;;;;;5071901;28;20218;-65
2022/08/28 06:00:03;;;;;;;0.80;0.80;;;;;;;;;;5065140;28;20249;-65
2022/08/28 06:02:29;;;;;;;0.80;0.80;;;;;;;;;;5052191;28;20224;-65
2022/08/28 06:04:56;;;;;;;0.73;0.73;;;;;;;;;;5060318;28;20195;-66
2022/08/28 06:07:22;;;;;;;0.80;0.80;;;;;;;;;;5067943;28;20269;-66
2022/08/28 06:09:48;;;;;;;0.70;0.70;;;;;;;;;;5063524;28;20211;-64
2022/08/28 06:12:14;;;;;;;0.90;0.90;;;;;;;;;;5073732;28;20831;-66
2022/08/28 06:14:40;;;;;;;0.80;0.80;;;;;;;;;;5070503;28;20237;-64
2022/08/28 06:17:06;;;;;;;0.97;0.97;;;;;;;;;;5072108;28;20237;-65
2022/08/28 06:19:32;;;;;;;0.80;0.80;;;;;;;;;;5071295;28;20206;-65
2022/08/28 06:21:59;;;;;;;0.80;0.80;;;;;;;;;;5074902;28;20242;-66
2022/08/28 06:24:26;;;;;;;0.77;0.77;;;;;;;;;;5069443;28;20222;-66
2022/08/28 06:26:52;;;;;;;0.80;0.80;;;;;;;;;;5056640;28;20274;-66
2022/08/28 06:29:18;;;;;;;0.80;0.80;;;;;;;;;;5057331;28;22120;-67
2022/08/28 06:31:44;;;;;;;0.87;0.87;;;;;;;;;;5058971;28;20598;-69
2022/08/28 06:34:10;;;;;;;0.80;0.80;;;;;;;;;;5066151;28;20217;-69
2022/08/28 06:36:37;;;;;;;0.80;0.80;;;;;;;;;;5068521;28;20241;-69
2022/08/28 06:39:04;;;;;;;0.80;0.80;;;;;;;;;;5074521;28;20217;-65
2022/08/28 06:41:31;;;;;;;0.80;0.80;;;;;;;;;;5064251;28;20330;-66
2022/08/28 06:43:57;;;;;;;0.90;0.90;;;;;;;;;;5061452;28;20236;-66
2022/08/28 06:46:23;;;;;;;0.80;0.80;;;;;;;;;;5061251;28;20226;-65
2022/08/28 06:48:49;;;;;;;0.77;0.77;;;;;;;;;;5063337;28;20691;-66
2022/08/28 06:51:15;;;;;;;0.80;0.80;;;;;;;;;;5064905;28;20298;-65
2022/08/28 06:53:42;;;;;;;0.90;0.90;;;;;;;;;;5061006;28;20573;-65
2022/08/28 06:56:10;;;;;;;0.75;0.75;;;;;;;;;;5058560;28;20815;-66
2022/08/28 06:58:36;;;;;;;0.80;0.80;;;;;;;;;;5039086;28;20231;-65
2022/08/28 07:01:05;;;;;;;0.80;0.80;;;;;;;;;;5059342;28;20214;-65
2022/08/28 07:03:32;;;;;;;0.70;0.70;;;;;;;;;;5078921;28;20218;-65
2022/08/28 07:05:58;;;;;;;0.70;0.70;;;;;;;;;;5079559;28;20233;-65
2022/08/28 07:08:26;;;;;;;0.65;0.65;;;;;;;;;;5076716;28;20222;-65
2022/08/28 07:10:53;;;;;;;0.70;0.70;;;;;;;;;;5066792;28;20218;-65
2022/08/28 07:13:19;;;;;;;0.60;0.60;;;;;;;;;;5073710;28;20227;-65
2022/08/28 07:15:45;;;;;;;0.75;0.75;;;;;;;;;;5077185;28;20695;-65
2022/08/28 07:18:11;;;;;;;0.82;0.82;;;;;;;;;;5069917;28;20222;-66
2022/08/28 07:20:37;;;;;;;0.70;0.70;;;;;;;;;;5077180;28;20225;-65
2022/08/28 07:23:03;;;;;;;0.80;0.80;;;;;;;;;;5075810;28;20224;-65
2022/08/28 07:25:29;;;;;;;0.90;0.90;;;;;;;;;;5085567;28;20231;-65
2022/08/28 07:27:55;;;;;;;0.90;0.90;;;;;;;;;;5081889;27;20221;-66
2022/08/28 07:30:21;;;;;;;0.80;0.80;;;;;;;;;;5084624;28;20306;-66
2022/08/28 07:32:48;;;;;;;0.70;0.70;;;;;;;;;;5084173;28;20218;-65
2022/08/28 07:35:15;;;;;;;0.82;0.82;;;;;;;;;;5081807;28;20243;-65
2022/08/28 07:37:40;;;;;;;0.90;0.90;;;;;;;;;;5082219;28;20218;-66
2022/08/28 07:40:08;;;;;;;0.80;0.80;;;;;;;;;;5085207;28;20229;-65
2022/08/28 07:45:19;;;;;;;0.82;0.82;;;;;;;;;;5085020;28;20226;-65
2022/08/28 07:47:46;;;;;;;0.75;0.75;;;;;;;;;;5081801;28;20671;-65
2022/08/28 07:50:12;;;;;;;0.60;0.60;;;;;;;;;;5088534;28;20237;-65
2022/08/28 07:52:38;;;;;;;0.70;0.70;;;;;;;;;;5081515;28;20767;-65
2022/08/28 07:55:05;;;;;;;0.60;0.60;;;;;;;;;;5088217;28;20205;-65
2022/08/28 07:57:31;;;;;;;0.70;0.70;;;;;;;;;;5081804;28;20270;-65
2022/08/28 07:59:58;;;;;;;0.80;0.80;;;;;;;;;;5080543;28;20211;-65
2022/08/28 08:02:24;;;;;;;0.60;0.60;;;;;;;;;;5075069;27;20787;-65
2022/08/28 08:04:50;;;;;;;0.70;0.70;;;;;;;;;;5065110;27;20207;-65
2022/08/28 08:07:16;;;;;;;0.60;0.60;;;;;;;;;;5080502;28;20691;-65
2022/08/28 08:09:43;;;;;;;0.70;0.70;;;;;;;;;;5076086;28;20271;-66
2022/08/28 08:12:09;;;;;;;0.60;0.60;;;;;;;;;;5078700;28;20242;-65
2022/08/28 08:14:36;;;;;;;0.68;0.68;;;;;;;;;;5074450;28;20256;-65
2022/08/28 08:17:02;;;;;;;0.68;0.68;;;;;;;;;;5079893;27;20779;-65
2022/08/28 08:19:28;;;;;;;0.85;0.85;;;;;;;;;;5078663;28;20217;-65
2022/08/28 08:21:54;;;;;;;0.80;0.80;;;;;;;;;;5078600;28;20209;-65
2022/08/28 08:24:20;;;;;;;0.90;0.90;;;;;;;;;;5072253;28;20234;-66
2022/08/28 08:26:47;;;;;;;0.80;0.80;;;;;;;;;;5075385;28;21021;-65
2022/08/28 08:29:13;;;;;;;0.90;0.90;;;;;;;;;;5075939;28;20249;-65
2022/08/28 08:31:39;;;;;;;0.90;0.90;;;;;;;;;;5079112;28;20219;-65
2022/08/28 08:34:05;;;;;;;0.80;0.80;;;;;;;;;;5078295;28;20246;-65
2022/08/28 08:36:32;;;;;;;0.88;0.88;;;;;;;;;;5082517;28;20239;-66
2022/08/28 08:38:58;;;;;;;0.80;0.80;;;;;;;;;;5085097;28;20283;-66
2022/08/28 08:41:32;;;;;;;0.90;0.90;;;;;;;;;;5080663;28;20219;-65
2022/08/28 08:44:08;;;;;;;0.90;0.90;;;;;;;;;;5083407;27;20223;-66
2022/08/28 08:46:37;;;;;;;0.90;0.90;;;;;;;;;;5066423;28;20231;-66
2022/08/28 08:49:04;;;;;;;1.00;1.00;;;;;;;;;;5080602;28;20259;-66
2022/08/28 08:51:40;;;;;;;1.00;1.00;;;;;;;;;;5081988;28;20255;-65
2022/08/28 08:54:11;;;;;;;0.90;0.90;;;;;;;;;;5076057;28;20219;-65
2022/08/28 08:56:38;;;;;;;0.85;0.85;;;;;;;;;;5074484;28;20583;-66
2022/08/28 08:59:04;;;;;;;0.90;0.90;;;;;;;;;;5078244;28;20903;-65
2022/08/28 09:01:36;;;;;;;0.98;0.98;;;;;;;;;;5053930;28;20232;-65
2022/08/28 09:04:21;;;;;;;0.90;0.90;;;;;;;;;;5065173;28;20226;-65
2022/08/28 09:06:47;;;;;;;0.80;0.80;;;;;;;;;;5074879;28;20230;-64
2022/08/28 09:09:28;;;;;;;0.80;0.80;;;;;;;;;;5074323;28;20279;-66
2022/08/28 09:11:55;;;;;;;0.98;0.98;;;;;;;;;;5096127;28;20214;-66
2022/08/28 09:14:33;;;;;;;1.52;1.52;;;;;;;;;;5082429;28;20224;-66
2022/08/28 09:16:59;;;;;;;1.35;1.35;;;;;;;;;;5080675;28;20230;-66
2022/08/28 09:19:25;;;;;;;1.20;1.20;;;;;;;;;;5075797;28;20300;-66
2022/08/28 09:21:51;;;;;;;1.42;1.42;;;;;;;;;;5073853;28;20232;-66
2022/08/28 09:24:21;;;;;;;1.15;1.15;;;;;;;;;;5071740;28;20219;-66
2022/08/28 09:26:51;;;;;;;0.90;0.90;;;;;;;;;;5067434;28;20223;-67
2022/08/28 09:29:18;;;;;;;0.80;0.80;;;;;;;;;;5082954;28;20182;-66
2022/08/28 09:31:44;;;;;;;0.90;0.90;;;;;;;;;;5073397;27;20598;-66
2022/08/28 09:34:22;;;;;;;1.27;1.27;;;;;;;;;;5084359;28;20213;-66
2022/08/28 09:36:48;;;;;;;1.10;1.10;;;;;;;;;;5083600;28;20386;-66
2022/08/28 09:39:30;;;;;;;0.82;0.82;;;;;;;;;;5078781;28;20402;-66
2022/08/28 09:44:48;;;;;;;1.30;1.30;;;;;;;;;;5079647;28;20726;-66
2022/08/28 09:47:32;;;;;;;1.15;1.15;;;;;;;;;;5064298;28;20330;-66
2022/08/28 09:50:13;;;;;;;1.10;1.10;;;;;;;;;;5074135;28;20230;-67
2022/08/28 09:52:39;;;;;;;1.00;1.00;;;;;;;;;;5068782;28;20267;-66
2022/08/28 09:55:06;;;;;;;0.75;0.75;;;;;;;;;;5056086;28;20218;-66
2022/08/28 09:57:32;;;;;;;1.05;1.05;;;;;;;;;;5060114;28;22526;-64
2022/08/28 09:59:57;;;;;;;1.50;1.50;;;;;;;;;;5048270;28;20252;-63
2022/08/28 10:02:25;;;;;;;1.30;1.30;;;;;;;;;;5059366;28;20227;-64
2022/08/28 10:05:00;;;;;;;1.40;1.40;;;;;;;;;;5065433;28;20348;-64
2022/08/28 10:07:34;;;;;;;1.42;1.42;;;;;;;;;;5063839;28;20299;-64
2022/08/28 10:10:03;;;;;;;1.30;1.30;;;;;;;;;;5051128;28;20705;-64
2022/08/28 10:12:41;;;;;;;1.30;1.30;;;;;;;;;;5076831;28;20330;-64
2022/08/28 10:15:26;;;;;;;1.40;1.40;;;;;;;;;;5076608;28;20226;-63
2022/08/28 10:18:18;;;;;;;1.00;1.00;;;;;;;;;;5061205;28;20226;-64
2022/08/28 10:20:53;;;;;;;0.93;0.93;;;;;;;;;;5068471;28;20226;-64
2022/08/28 10:23:18;;;;;;;0.90;0.90;;;;;;;;;;5083447;28;20559;-64
2022/08/28 10:26:03;;;;;;;1.00;1.00;;;;;;;;;;5074104;28;20218;-64
2022/08/28 10:28:48;;;;;;;1.00;1.00;;;;;;;;;;5075401;28;20231;-63
2022/08/28 10:31:14;;;;;;;1.00;1.00;;;;;;;;;;5074559;28;20227;-63
2022/08/28 10:33:58;;;;;;;1.20;1.20;;;;;;;;;;5069499;28;20254;-65
2022/08/28 10:36:28;;;;;;;1.17;1.17;;;;;;;;;;5083090;28;20326;-64
2022/08/28 10:38:59;;;;;;;1.30;1.30;;;;;;;;;;5070293;28;20616;-64
2022/08/28 10:41:35;;;;;;;1.30;1.30;;;;;;;;;;5065943;28;20628;-70
2022/08/28 10:44:01;;;;;;;1.30;1.30;;;;;;;;;;5063992;28;20245;-70
2022/08/28 10:46:41;;;;;;;1.50;1.50;;;;;;;;;;5076271;28;20367;-69
2022/08/28 10:49:16;;;;;;;1.65;1.65;;;;;;;;;;5072255;28;20224;-69
2022/08/28 10:51:43;;;;;;;1.77;1.67;;;;;;;;;;5070261;28;20218;-69
2022/08/28 10:54:21;;;;;;;0.90;0.90;;;;;;;;;;5067405;28;20211;-69
2022/08/28 10:56:51;;;;;;;1.00;1.00;;;;;;;;;;5058238;28;20649;-69
2022/08/28 10:59:17;;;;;;;1.00;1.00;;;;;;;;;;5073168;28;20236;-70
2022/08/28 11:01:43;;;;;;;1.13;1.13;;;;;;;;;;5079358;28;20222;-68
2022/08/28 11:04:18;;;;;;;1.10;1.10;;;;;;;;;;5081050;28;20222;-69
2022/08/28 11:06:58;;;;;;;1.00;1.00;;;;;;;;;;5069102;28;20305;-69
2022/08/28 11:09:35;;;;;;;1.00;1.00;;;;;;;;;;5075532;28;20218;-69
2022/08/28 11:12:06;;;;;;;1.10;1.10;;;;;;;;;;5076752;28;20251;-71
2022/08/28 11:14:33;;;;;;;1.60;1.60;;;;;;;;;;5072071;28;20234;-73
2022/08/28 11:17:06;;;;;;;1.80;1.70;;;;;;;;;;5058920;28;20215;-69
2022/08/28 11:19:38;;;;;;;1.80;1.70;;;;;;;;;;5037902;28;20223;-62
2022/08/28 11:22:15;;;;;;;0.90;0.90;;;;;;;;;;5065322;28;20209;-62
2022/08/28 11:24:49;;;;;;;1.83;1.73;;;;;;;;;;5073752;28;20336;-63
2022/08/28 11:27:17;;;;;;;1.10;1.10;;;;;;;;;;5077327;28;20209;-62
2022/08/28 11:29:59;;;;;;;1.38;1.38;;;;;;;;;;5083775;28;20207;-62
2022/08/28 11:32:35;;;;;;;1.50;1.50;;;;;;;;;;5080614;28;20230;-61
2022/08/28 11:35:06;;;;;;;1.40;1.40;;;;;;;;;;5074350;27;20243;-61
2022/08/28 11:37:39;;;;;;;1.73;1.70;;;;;;;;;;5064376;28;20249;-61
2022/08/28 11:40:40;;;;;;;1.48;1.48;;;;;;;;;;5076527;28;20222;-61
2022/08/28 11:43:13;;;;;;;1.42;1.42;;;;;;;;;;5080937;28;20217;-62
2022/08/28 11:45:42;;;;;;;1.60;1.60;;;;;;;;;;5083390;28;20214;-60
2022/08/28 11:48:27;;;;;;;1.40;1.40;;;;;;;;;;5072895;28;20218;-62
2022/08/28 11:51:02;;;;;;;1.40;1.40;;;;;;;;;;5070829;28;20210;-63
2022/08/28 11:53:37;;;;;;;1.38;1.38;;;;;;;;;;5076270;28;20210;-62
2022/08/28 11:56:09;;;;;;;1.00;1.00;;;;;;;;;;5085955;28;20225;-62
2022/08/28 11:58:47;;;;;;;1.10;1.10;;;;;;;;;;5078512;28;20588;-62
2022/08/28 12:01:13;;;;;;;1.00;1.00;;;;;;;;;;5061844;28;20225;-62
2022/08/28 12:03:56;;;;;;;1.02;1.02;;;;;;;;;;5088844;28;20870;-61
2022/08/28 12:06:40;;;;;;;0.93;0.93;;;;;;;;;;5061812;28;20199;-61
2022/08/28 12:09:06;;;;;;;0.93;0.93;;;;;;;;;;5082672;28;20191;-62
2022/08/28 12:11:38;;;;;;;1.02;1.02;;;;;;;;;;5076913;28;20526;-62
2022/08/28 12:14:11;;;;;;;1.00;1.00;;;;;;;;;;5066345;28;20358;-62
2022/08/28 12:16:56;;;;;;;1.00;1.00;;;;;;;;;;5074870;28;20230;-62
2022/08/28 12:19:41;;;;;;;0.90;0.90;;;;;;;;;;5076284;27;20217;-62
2022/08/28 12:22:17;;;;;;;0.90;0.90;;;;;;;;;;5085165;28;20218;-61
2022/08/28 12:24:54;;;;;;;0.90;0.90;;;;;;;;;;5080692;28;20644;-62
2022/08/28 12:27:20;;;;;;;0.80;0.80;;;;;;;;;;5064344;28;20297;-62
2022/08/28 12:29:53;;;;;;;0.90;0.90;;;;;;;;;;5080369;28;20223;-63
2022/08/28 12:32:28;;;;;;;1.00;1.00;;;;;;;;;;5076781;28;20236;-62
2022/08/28 12:34:57;;;;;;;0.95;0.95;;;;;;;;;;5071407;28;20289;-62
2022/08/28 12:37:23;;;;;;;1.00;1.00;;;;;;;;;;5070434;28;20286;-62
2022/08/28 12:39:49;;;;;;;0.90;0.90;;;;;;;;;;5066300;28;21507;-62
2022/08/28 12:42:16;;;;;;;1.20;1.20;;;;;;;;;;5058049;28;20218;-62
2022/08/28 12:44:42;;;;;;;1.20;1.20;;;;;;;;;;5057154;28;20211;-61
2022/08/28 12:47:08;;;;;;;1.10;1.10;;;;;;;;;;5080168;28;20209;-63
2022/08/28 12:49:34;;;;;;;1.02;1.02;;;;;;;;;;5082166;28;20214;-62
2022/08/28 12:52:07;;;;;;;1.15;1.15;;;;;;;;;;5062797;28;20640;-62
2022/08/28 12:54:34;;;;;;;1.13;1.13;;;;;;;;;;5067656;28;20202;-62
2022/08/28 12:57:00;;;;;;;1.15;1.15;;;;;;;;;;5075856;28;20320;-60
2022/08/28 12:59:32;;;;;;;1.20;1.20;;;;;;;;;;5080931;28;20254;-62
2022/08/28 13:02:11;;;;;;;1.40;1.40;;;;;;;;;;5079639;28;20226;-62
2022/08/28 13:04:38;;;;;;;1.20;1.20;;;;;;;;;;5081089;28;20228;-62
2022/08/28 13:07:09;;;;;;;1.20;1.20;;;;;;;;;;5075041;28;20202;-66
2022/08/28 13:09:35;;;;;;;1.40;1.40;;;;;;;;;;5059483;28;20218;-63
2022/08/28 13:12:01;;;;;;;1.50;1.50;;;;;;;;;;5062645;28;20212;-64
2022/08/28 13:14:40;;;;;;;1.20;1.20;;;;;;;;;;5076516;28;20233;-63
2022/08/28 13:17:06;;;;;;;1.30;1.30;;;;;;;;;;5077606;28;20233;-63
2022/08/28 13:19:33;;;;;;;1.20;1.20;;;;;;;;;;5083013;28;20210;-63
2022/08/28 13:22:00;;;;;;;1.60;1.60;;;;;;;;;;5077302;28;20260;-64
2022/08/28 13:24:26;;;;;;;1.27;1.27;;;;;;;;;;5078088;28;20218;-60
2022/08/28 13:27:06;;;;;;;1.30;1.30;;;;;;;;;;5077983;28;20190;-62
2022/08/28 13:29:32;;;;;;;1.30;1.30;;;;;;;;;;5076194;28;20263;-63
2022/08/28 13:32:05;;;;;;;1.10;1.10;;;;;;;;;;5057278;28;20206;-64
2022/08/28 13:34:32;;;;;;;1.23;1.23;;;;;;;;;;5061244;28;20272;-64
2022/08/28 13:36:59;;;;;;;1.30;1.30;;;;;;;;;;5074763;28;20212;-77
2022/08/28 13:39:25;;;;;;;1.10;1.10;;;;;;;;;;5054021;28;20218;-80
2022/08/28 13:41:52;;;;;;;1.10;1.10;;;;;;;;;;5070415;28;20229;-78
2022/08/28 13:44:29;;;;;;;1.00;1.00;;;;;;;;;;5044410;28;20579;-78
2022/08/28 13:46:56;;;;;;;1.00;1.00;;;;;;;;;;5047707;28;20212;-77
2022/08/28 13:49:22;;;;;;;1.10;1.10;;;;;;;;;;5050679;28;20218;-77
2022/08/28 13:51:48;;;;;;;1.23;1.23;;;;;;;;;;5044832;28;20222;-79
2022/08/28 13:54:14;;;;;;;1.10;1.10;;;;;;;;;;5041405;28;20229;-80
2022/08/28 13:56:40;;;;;;;1.10;1.10;;;;;;;;;;5080904;28;20698;-78
2022/08/28 13:59:06;;;;;;;1.10;1.10;;;;;;;;;;5079040;28;20222;-82
2022/08/28 14:04:16;;;;;;;1.00;1.00;;;;;;;;;;5053925;28;20221;-77
2022/08/28 14:06:43;;;;;;;1.10;1.10;;;;;;;;;;5069531;27;20217;-75
2022/08/28 14:09:14;;;;;;;1.13;1.13;;;;;;;;;;5085888;28;20528;-76
2022/08/28 14:11:40;;;;;;;1.05;1.05;;;;;;;;;;5072278;28;20213;-75
2022/08/28 14:14:06;;;;;;;1.10;1.10;;;;;;;;;;5065869;28;20214;-74
2022/08/28 14:16:32;;;;;;;1.00;1.00;;;;;;;;;;5094071;28;20249;-77
2022/08/28 14:19:03;;;;;;;1.13;1.13;;;;;;;;;;5078662;28;20872;-76
2022/08/28 14:21:29;;;;;;;1.00;1.00;;;;;;;;;;5074811;28;20221;-76
2022/08/28 14:23:55;;;;;;;1.00;1.00;;;;;;;;;;5061049;28;21089;-75
2022/08/28 14:26:21;;;;;;;1.30;1.30;;;;;;;;;;5065022;28;20824;-76
2022/08/28 14:28:47;;;;;;;1.00;1.00;;;;;;;;;;5068698;28;21150;-75
2022/08/28 14:31:13;;;;;;;1.08;1.08;;;;;;;;;;5060583;28;20222;-76
2022/08/28 14:33:39;;;;;;;1.00;1.00;;;;;;;;;;5026840;28;20289;-75
2022/08/28 14:36:05;;;;;;;1.20;1.20;;;;;;;;;;5036223;28;21801;-74
2022/08/28 14:38:32;;;;;;;1.00;1.00;;;;;;;;;;5047781;28;20795;-75
2022/08/28 14:40:58;;;;;;;1.13;1.13;;;;;;;;;;5016627;28;20226;-75
2022/08/28 14:43:24;;;;;;;1.02;1.02;;;;;;;;;;5035941;28;20760;-74
2022/08/28 14:45:50;;;;;;;1.02;1.02;;;;;;;;;;5050803;28;25898;-74
2022/08/28 14:48:16;;;;;;;1.00;1.00;;;;;;;;;;5057662;28;20214;-80
2022/08/28 14:50:43;;;;;;;1.00;1.00;;;;;;;;;;5033276;28;20230;-75
2022/08/28 14:53:09;;;;;;;1.20;1.20;;;;;;;;;;5032898;28;20350;-77
2022/08/28 14:55:45;;;;;;;1.00;1.00;;;;;;;;;;5041744;28;20230;-79
2022/08/28 14:58:11;;;;;;;1.10;1.10;;;;;;;;;;5049860;28;20213;-75